createdAt,value
2018-07-24T00:02:53.332Z,99517.73
2018-07-24T00:08:58.962Z,99513.90
2018-07-24T00:15:05.776Z,99517.14
2018-07-24T00:21:11.560Z,99518.31
2018-07-24T00:27:17.132Z,99522.05
2018-07-24T00:33:22.767Z,99521.87
2018-07-24T00:39:28.320Z,99522.50
2018-07-24T00:45:34.102Z,99518.38
2018-07-24T00:51:39.670Z,99518.01
2018-07-24T00:57:45.255Z,99523.98
2018-07-24T01:03:50.824Z,99520.39
2018-07-24T01:09:56.457Z,99521.22
2018-07-24T01:16:02.046Z,99511.16
2018-07-24T01:22:07.647Z,99504.62
2018-07-24T01:28:13.220Z,99508.75
2018-07-24T01:34:18.824Z,99516.78
2018-07-24T01:40:24.419Z,99513.27
2018-07-24T01:46:30.035Z,99508.32
2018-07-24T01:52:35.690Z,99513.41
2018-07-24T01:58:41.248Z,99517.16
2018-07-24T02:04:47.004Z,99516.16
2018-07-24T02:10:52.605Z,99514.52
2018-07-24T02:16:58.212Z,99519.91
2018-07-24T02:23:03.854Z,99515.11
2018-07-24T02:29:09.438Z,99511.52
2018-07-24T02:35:15.176Z,99506.14
2018-07-24T02:41:20.829Z,99504.00
2018-07-24T02:47:26.444Z,99499.73
2018-07-24T02:53:32.047Z,99500.19
2018-07-24T02:59:37.653Z,99501.48
2018-07-24T03:05:43.260Z,99498.23
2018-07-24T03:11:48.820Z,99494.28
2018-07-24T03:17:54.399Z,99487.65
2018-07-24T03:24:00.012Z,99492.92
2018-07-24T03:30:06.159Z,99495.31
2018-07-24T03:36:11.798Z,99491.92
2018-07-24T03:42:17.410Z,99493.03
2018-07-24T03:48:22.958Z,99501.55
2018-07-24T03:54:28.983Z,99501.98
2018-07-24T04:00:34.584Z,99494.92
2018-07-24T04:06:40.149Z,99505.05
2018-07-24T04:12:45.923Z,99502.09
2018-07-24T04:18:51.491Z,99507.47
2018-07-24T04:24:57.074Z,99501.26
2018-07-24T04:31:02.746Z,99498.50
2018-07-24T04:37:08.261Z,99501.03
2018-07-24T04:43:13.821Z,99505.26
2018-07-24T04:49:19.396Z,99513.75
2018-07-24T04:55:25.016Z,99520.41
2018-07-24T05:01:30.597Z,99515.58
2018-07-24T05:07:36.181Z,99518.52
2018-07-24T05:13:41.743Z,99519.22
2018-07-24T05:19:47.315Z,99518.30
2018-07-24T05:25:52.915Z,99520.85
2018-07-24T05:31:58.529Z,99522.97
2018-07-24T05:38:04.170Z,99532.61
2018-07-24T05:44:09.937Z,99527.36
2018-07-24T05:50:15.594Z,99527.27
2018-07-24T05:56:21.216Z,99526.35
2018-07-24T06:02:26.854Z,99522.08
2018-07-24T06:08:32.478Z,99527.97
2018-07-24T06:14:38.041Z,99523.36
2018-07-24T06:20:43.648Z,99515.42
2018-07-24T06:26:49.366Z,99523.05
2018-07-24T06:32:54.938Z,99518.33
2018-07-24T06:39:00.502Z,99517.54
2018-07-24T06:45:06.484Z,99512.89
2018-07-24T06:51:12.111Z,99512.00
2018-07-24T06:57:17.681Z,99500.83
2018-07-24T07:03:23.415Z,99495.38
2018-07-24T07:09:28.970Z,99497.87
2018-07-24T07:15:34.583Z,99495.11
2018-07-24T07:21:40.178Z,99493.25
2018-07-24T07:27:45.772Z,99492.81
2018-07-24T07:33:51.378Z,99485.51
2018-07-24T07:39:56.962Z,99481.22
2018-07-24T07:46:02.716Z,99469.48
2018-07-24T07:52:08.316Z,99475.05
2018-07-24T07:58:13.913Z,99476.66
2018-07-24T08:04:19.273Z,99472.20
2018-07-24T08:10:24.789Z,99466.81
2018-07-24T08:16:30.511Z,99462.67
2018-07-24T08:22:36.660Z,99457.05
2018-07-24T08:28:42.331Z,99454.31
2018-07-24T08:34:47.976Z,99454.69
2018-07-24T08:40:54.072Z,99460.93
2018-07-24T08:46:59.669Z,99454.76
2018-07-24T08:53:05.515Z,99450.68
2018-07-24T08:59:10.989Z,99456.64
2018-07-24T09:05:16.881Z,99442.31
2018-07-24T09:11:22.853Z,99442.51
2018-07-24T09:17:28.837Z,99432.23
2018-07-24T09:23:34.809Z,99431.18
2018-07-24T09:29:40.708Z,99432.16
2018-07-24T09:35:46.653Z,99419.02
2018-07-24T09:41:52.560Z,99425.87
2018-07-24T09:47:58.468Z,99415.41
2018-07-24T09:54:04.467Z,99416.86
2018-07-24T10:00:10.372Z,99410.89
2018-07-24T10:06:16.055Z,99403.40
2018-07-24T10:12:21.785Z,99401.76
2018-07-24T10:18:27.730Z,99394.95
2018-07-24T10:24:33.848Z,99392.05
2018-07-24T10:30:39.658Z,99385.28
2018-07-24T10:36:45.622Z,99381.11
2018-07-24T10:42:51.553Z,99384.66
2018-07-24T10:48:57.535Z,99373.80
2018-07-24T10:55:03.578Z,99361.50
2018-07-24T11:01:09.575Z,99356.77
2018-07-24T11:07:15.539Z,99359.50
2018-07-24T11:13:21.438Z,99343.13
2018-07-24T11:19:28.120Z,99334.59
2018-07-24T11:25:34.140Z,99338.91
2018-07-24T11:31:40.098Z,99327.29
2018-07-24T11:37:45.973Z,99313.91
2018-07-24T11:43:51.785Z,99313.66
2018-07-24T11:49:57.748Z,99317.01
2018-07-24T11:56:03.640Z,99314.50
2018-07-24T12:02:09.345Z,99311.64
2018-07-24T12:08:15.011Z,99297.03
2018-07-24T12:14:20.614Z,99288.86
2018-07-24T12:20:26.538Z,99272.33
2018-07-24T12:26:32.447Z,99269.30
2018-07-24T12:32:38.377Z,99265.55
2018-07-24T12:38:44.307Z,99256.22
2018-07-24T12:44:50.292Z,99249.38
2018-07-24T12:50:56.324Z,99254.52
2018-07-24T12:57:02.325Z,99245.78
2018-07-24T13:03:08.275Z,99239.82
2018-07-24T13:09:14.200Z,99233.42
2018-07-24T13:15:20.116Z,99231.16
2018-07-24T13:21:25.675Z,99232.91
2018-07-24T13:27:31.501Z,99229.10
2018-07-24T13:33:37.598Z,99229.28
2018-07-24T13:39:43.612Z,99225.50
2018-07-24T13:45:49.567Z,99226.27
2018-07-24T13:51:55.272Z,99218.31
2018-07-24T13:58:01.029Z,99222.52
2018-07-24T14:04:07.117Z,99213.84
2018-07-24T14:10:13.061Z,99210.13
2018-07-24T14:16:18.576Z,99208.53
2018-07-24T14:22:24.557Z,99203.48
2018-07-24T14:28:30.505Z,99203.28
2018-07-24T14:34:36.446Z,99188.23
2018-07-24T14:40:42.341Z,99195.61
2018-07-24T14:46:48.127Z,99185.16
2018-07-24T14:52:53.753Z,99180.94
2018-07-24T14:58:59.390Z,99169.39
2018-07-24T15:05:05.048Z,99167.38
2018-07-24T15:11:10.730Z,99164.94
2018-07-24T15:17:16.668Z,99162.53
2018-07-24T15:23:22.634Z,99156.06
2018-07-24T15:29:28.600Z,99154.80
2018-07-24T15:35:34.545Z,99154.61
2018-07-24T15:41:40.497Z,99156.20
2018-07-24T15:47:46.487Z,99146.83
2018-07-24T15:53:52.380Z,99145.22
2018-07-24T15:59:58.321Z,99137.67
2018-07-24T16:06:04.131Z,99146.33
2018-07-24T16:12:10.526Z,99141.02
2018-07-24T16:18:16.220Z,99144.89
2018-07-24T16:24:21.917Z,99141.44
2018-07-24T16:30:27.594Z,99135.27
2018-07-24T16:36:33.245Z,99141.67
2018-07-24T16:42:39.042Z,99136.28
2018-07-24T16:48:44.845Z,99139.14
2018-07-24T16:54:51.127Z,99137.12
2018-07-24T17:00:56.951Z,99126.59
2018-07-24T17:07:02.700Z,99134.77
2018-07-24T17:13:08.352Z,99137.26
2018-07-24T17:19:13.997Z,99130.95
2018-07-24T17:25:19.608Z,99124.47
2018-07-24T17:31:25.296Z,99125.31
2018-07-24T17:37:31.555Z,99125.80
2018-07-24T17:43:37.202Z,99122.91
2018-07-24T17:49:42.801Z,99128.52
2018-07-24T17:55:49.283Z,99132.09
2018-07-24T18:01:54.933Z,99135.69
2018-07-24T18:08:00.964Z,99135.00
2018-07-24T18:14:06.978Z,99138.77
2018-07-24T18:20:13.004Z,99143.92
2018-07-24T18:26:19.004Z,99142.17
2018-07-24T18:32:25.067Z,99138.98
2018-07-24T18:38:31.108Z,99140.42
2018-07-24T18:44:37.121Z,99150.93
2018-07-24T18:50:43.129Z,99154.30
2018-07-24T18:56:49.055Z,99159.06
2018-07-24T19:02:55.058Z,99162.10
2018-07-24T19:09:01.032Z,99162.84
2018-07-24T19:15:07.629Z,99169.46
2018-07-24T19:21:13.384Z,99170.79
2018-07-24T19:27:19.368Z,99183.14
2018-07-24T19:33:25.271Z,99187.41
2018-07-24T19:39:30.776Z,99190.89
2018-07-24T19:45:36.288Z,99195.66
2018-07-24T19:51:41.855Z,99198.58
2018-07-24T19:57:47.465Z,99203.31
2018-07-24T20:03:53.025Z,99202.83
2018-07-24T20:09:58.619Z,99214.46
2018-07-24T20:16:04.742Z,99210.35
2018-07-24T20:22:10.489Z,99212.19
2018-07-24T20:28:16.085Z,99211.99
2018-07-24T20:34:21.904Z,99214.83
2018-07-24T20:40:27.509Z,99216.51
2018-07-24T20:46:33.094Z,99221.47
2018-07-24T20:52:38.671Z,99219.02
2018-07-24T20:58:44.253Z,99220.97
2018-07-24T21:04:49.808Z,99225.28
2018-07-24T21:10:56.360Z,99228.52
2018-07-24T21:17:01.927Z,99228.39
2018-07-24T21:23:07.644Z,99229.34
2018-07-24T21:29:13.236Z,99233.39
2018-07-24T21:35:18.751Z,99236.86
2018-07-24T21:41:24.362Z,99233.73
2018-07-24T21:47:29.930Z,99239.97
2018-07-24T21:53:35.878Z,99238.95
2018-07-24T21:59:41.460Z,99248.23
2018-07-24T22:05:47.022Z,99245.34
2018-07-24T22:11:52.582Z,99245.84
2018-07-24T22:17:58.328Z,99248.00
2018-07-24T22:24:03.975Z,99250.03
2018-07-24T22:30:10.112Z,99251.73
2018-07-24T22:36:15.563Z,99255.83
2018-07-24T22:42:20.984Z,99254.30
2018-07-24T22:48:26.483Z,99258.56
2018-07-24T22:54:31.668Z,99261.94
2018-07-24T23:00:36.986Z,99264.27
2018-07-24T23:06:42.430Z,99267.64
2018-07-24T23:12:47.881Z,99260.36
2018-07-24T23:18:53.310Z,99271.80
2018-07-24T23:24:58.746Z,99268.28
2018-07-24T23:31:04.255Z,99269.22
2018-07-24T23:37:09.710Z,99264.89
2018-07-24T23:43:15.158Z,99264.45
2018-07-24T23:49:20.613Z,99261.07
2018-07-24T23:55:26.065Z,99264.45
